createdAt,value
2022-08-26T00:00:17.633Z,23.73
2022-08-26T00:01:17.586Z,23.73
2022-08-26T00:02:20.656Z,23.76
2022-08-26T00:03:17.482Z,23.73
2022-08-26T00:04:17.499Z,23.76
2022-08-26T00:05:17.400Z,23.68
2022-08-26T00:06:17.333Z,23.66
2022-08-26T00:07:17.390Z,23.68
2022-08-26T00:08:17.244Z,23.66
2022-08-26T00:09:17.198Z,23.68
2022-08-26T00:10:17.165Z,23.63
2022-08-26T00:11:26.681Z,23.65
2022-08-26T00:12:17.055Z,23.63
2022-08-26T00:13:17.015Z,23.56
2022-08-26T00:14:16.965Z,23.59
2022-08-26T00:15:16.933Z,23.58
2022-08-26T00:16:16.906Z,23.61
2022-08-26T00:17:16.825Z,23.56
2022-08-26T00:18:22.371Z,23.62
2022-08-26T00:19:16.735Z,23.65
2022-08-26T00:20:16.700Z,23.59
2022-08-26T00:21:16.641Z,23.50
2022-08-26T00:22:21.616Z,23.55
2022-08-26T00:23:16.549Z,23.54
2022-08-26T00:24:16.503Z,23.54
2022-08-26T00:25:16.784Z,23.51
2022-08-26T00:26:16.412Z,23.56
2022-08-26T00:27:16.363Z,23.55
2022-08-26T00:28:16.317Z,23.48
2022-08-26T00:29:16.275Z,23.46
2022-08-26T00:30:16.226Z,23.47
2022-08-26T00:31:16.227Z,23.51
2022-08-26T00:32:16.138Z,23.41
2022-08-26T00:33:16.086Z,23.48
2022-08-26T00:34:16.037Z,23.48
2022-08-26T00:35:15.995Z,23.46
2022-08-26T00:36:20.039Z,23.44
2022-08-26T00:37:16.328Z,23.37
2022-08-26T00:38:15.855Z,23.39
2022-08-26T00:39:15.809Z,23.43
2022-08-26T00:40:15.818Z,23.36
2022-08-26T00:41:17.015Z,23.46
2022-08-26T00:42:15.672Z,23.28
2022-08-26T00:43:15.630Z,23.31
2022-08-26T00:44:15.587Z,23.24
2022-08-26T00:45:15.535Z,23.36
2022-08-26T00:46:15.571Z,23.25
2022-08-26T00:47:15.460Z,23.27
2022-08-26T00:48:15.408Z,23.24
2022-08-26T00:49:15.351Z,23.31
2022-08-26T00:50:15.313Z,23.20
2022-08-26T00:51:15.254Z,23.31
2022-08-26T00:52:15.377Z,23.27
2022-08-26T00:53:15.163Z,23.23
2022-08-26T00:54:15.123Z,23.24
2022-08-26T00:55:19.731Z,23.31
2022-08-26T00:56:15.024Z,23.27
2022-08-26T00:57:16.210Z,23.28
2022-08-26T00:58:24.422Z,23.31
2022-08-26T00:59:14.895Z,23.20
2022-08-26T01:00:14.858Z,23.17
2022-08-26T01:01:14.817Z,23.25
2022-08-26T01:02:18.007Z,23.20
2022-08-26T01:03:14.698Z,23.17
2022-08-26T01:04:14.653Z,23.20
2022-08-26T01:05:14.625Z,23.09
2022-08-26T01:06:14.565Z,23.08
2022-08-26T01:07:14.514Z,23.12
2022-08-26T01:08:14.467Z,23.10
2022-08-26T01:09:14.424Z,23.21
2022-08-26T01:10:14.386Z,23.23
2022-08-26T01:11:14.344Z,23.15
2022-08-26T01:12:14.283Z,23.12
2022-08-26T01:13:14.239Z,23.06
2022-08-26T01:14:14.192Z,23.15
2022-08-26T01:15:14.159Z,23.08
2022-08-26T01:16:14.147Z,23.08
2022-08-26T01:17:14.051Z,23.02
2022-08-26T01:18:14.045Z,23.02
2022-08-26T01:19:13.961Z,23.05
2022-08-26T01:20:13.913Z,23.00
2022-08-26T01:21:13.879Z,22.96
2022-08-26T01:22:13.817Z,22.93
2022-08-26T01:23:13.773Z,23.02
2022-08-26T01:24:14.055Z,22.98
2022-08-26T01:25:13.681Z,22.91
2022-08-26T01:26:19.392Z,22.94
2022-08-26T01:27:13.586Z,22.93
2022-08-26T01:28:13.539Z,22.87
2022-08-26T01:29:13.495Z,22.84
2022-08-26T01:30:13.467Z,22.78
2022-08-26T01:31:14.721Z,22.76
2022-08-26T01:32:13.355Z,22.68
2022-08-26T01:33:13.309Z,22.65
2022-08-26T01:34:13.276Z,22.65
2022-08-26T01:35:13.222Z,22.63
2022-08-26T01:36:13.184Z,22.59
2022-08-26T01:37:15.591Z,22.51
2022-08-26T01:38:13.074Z,22.47
2022-08-26T01:39:13.039Z,22.38
2022-08-26T01:40:13.020Z,22.32
2022-08-26T01:41:16.264Z,22.32
2022-08-26T01:42:12.892Z,22.30
2022-08-26T01:43:12.842Z,22.22
2022-08-26T01:44:12.799Z,22.26
2022-08-26T01:45:12.769Z,22.22
2022-08-26T01:46:12.743Z,22.15
2022-08-26T01:47:12.660Z,22.10
2022-08-26T01:48:12.610Z,22.08
2022-08-26T01:49:12.574Z,21.99
2022-08-26T01:50:12.534Z,22.02
2022-08-26T01:51:12.469Z,22.02
2022-08-26T01:52:12.438Z,21.99
2022-08-26T01:53:12.509Z,21.91
2022-08-26T01:54:13.874Z,21.83
2022-08-26T01:55:12.283Z,21.85
2022-08-26T01:56:12.235Z,21.89
2022-08-26T01:57:12.191Z,21.79
2022-08-26T01:58:12.155Z,21.77
2022-08-26T01:59:12.226Z,21.79
2022-08-26T02:00:12.049Z,21.75
2022-08-26T02:01:12.048Z,21.64
2022-08-26T02:02:11.956Z,21.69
2022-08-26T02:03:12.001Z,21.67
2022-08-26T02:04:11.885Z,21.66
2022-08-26T02:05:11.882Z,21.64
2022-08-26T02:06:11.766Z,21.67
2022-08-26T02:07:11.719Z,21.58
2022-08-26T02:08:11.671Z,21.61
2022-08-26T02:09:11.643Z,21.62
2022-08-26T02:10:11.578Z,21.51
2022-08-26T02:11:11.533Z,21.52
2022-08-26T02:12:11.485Z,21.45
2022-08-26T02:13:11.452Z,21.36
2022-08-26T02:14:11.404Z,21.40
2022-08-26T02:15:11.345Z,21.40
2022-08-26T02:16:11.359Z,21.43
2022-08-26T02:17:11.249Z,21.46
2022-08-26T02:18:14.111Z,21.36
2022-08-26T02:19:11.708Z,21.27
2022-08-26T02:20:13.380Z,21.40
2022-08-26T02:21:11.060Z,21.40
2022-08-26T02:22:11.014Z,21.29
2022-08-26T02:23:10.964Z,21.36
2022-08-26T02:24:10.932Z,21.27
2022-08-26T02:25:10.872Z,21.24
2022-08-26T02:26:10.823Z,21.20
2022-08-26T02:27:10.775Z,21.20
2022-08-26T02:28:10.745Z,21.22
2022-08-26T02:29:10.685Z,21.14
2022-08-26T02:30:10.637Z,21.18
2022-08-26T02:31:10.604Z,21.15
2022-08-26T02:32:10.551Z,21.18
2022-08-26T02:33:10.493Z,21.20
2022-08-26T02:34:10.841Z,21.15
2022-08-26T02:35:10.397Z,21.14
2022-08-26T02:36:10.350Z,21.11
2022-08-26T02:37:10.303Z,21.11
2022-08-26T02:38:11.111Z,21.06
2022-08-26T02:39:10.207Z,21.06
2022-08-26T02:40:10.210Z,21.06
2022-08-26T02:41:10.113Z,21.00
2022-08-26T02:42:10.074Z,21.05
2022-08-26T02:43:10.097Z,21.02
2022-08-26T02:44:09.990Z,21.06
2022-08-26T02:45:09.926Z,20.95
2022-08-26T02:46:09.880Z,20.92
2022-08-26T02:47:09.881Z,20.87
2022-08-26T02:48:09.780Z,20.92
2022-08-26T02:49:09.753Z,20.85
2022-08-26T02:50:09.687Z,20.90
2022-08-26T02:51:09.640Z,20.88
2022-08-26T02:52:09.592Z,20.82
2022-08-26T02:53:09.900Z,20.82
2022-08-26T02:54:09.500Z,20.85
2022-08-26T02:55:09.449Z,20.82
2022-08-26T02:56:09.408Z,20.81
2022-08-26T02:57:09.354Z,20.81
2022-08-26T02:58:09.303Z,20.81
2022-08-26T02:59:09.273Z,20.81
2022-08-26T03:00:09.210Z,20.81
2022-08-26T03:01:09.241Z,20.85
2022-08-26T03:02:09.225Z,20.69
2022-08-26T03:03:09.347Z,20.74
2022-08-26T03:04:09.034Z,20.78
2022-08-26T03:05:08.971Z,20.70
2022-08-26T03:06:08.929Z,20.70
2022-08-26T03:07:08.898Z,20.70
2022-08-26T03:08:08.844Z,20.67
2022-08-26T03:09:08.800Z,20.72
2022-08-26T03:10:09.004Z,20.72
2022-08-26T03:11:08.685Z,20.72
2022-08-26T03:12:08.644Z,20.69
2022-08-26T03:13:08.790Z,20.70
2022-08-26T03:14:08.543Z,20.58
2022-08-26T03:15:17.562Z,20.63
2022-08-26T03:16:08.489Z,20.58
2022-08-26T03:17:08.402Z,20.66
2022-08-26T03:18:08.369Z,20.60
2022-08-26T03:19:08.304Z,20.56
2022-08-26T03:20:08.255Z,20.66
2022-08-26T03:21:08.212Z,20.56
2022-08-26T03:22:08.161Z,20.60
2022-08-26T03:23:08.363Z,20.63
2022-08-26T03:24:08.064Z,20.65
2022-08-26T03:25:08.018Z,20.60
2022-08-26T03:26:07.983Z,20.66
2022-08-26T03:27:07.923Z,20.62
2022-08-26T03:28:07.886Z,20.66
2022-08-26T03:29:07.830Z,20.60
2022-08-26T03:30:07.777Z,20.59
2022-08-26T03:31:07.790Z,20.56
2022-08-26T03:32:07.687Z,20.52
2022-08-26T03:33:08.085Z,20.62
2022-08-26T03:34:07.587Z,20.48
2022-08-26T03:35:07.537Z,20.47
2022-08-26T03:36:07.490Z,20.41
2022-08-26T03:37:07.443Z,20.47
2022-08-26T03:38:07.408Z,20.48
2022-08-26T03:39:07.351Z,20.36
2022-08-26T03:40:07.373Z,20.37
2022-08-26T03:41:07.249Z,20.31
2022-08-26T03:42:07.219Z,20.36
2022-08-26T03:43:07.298Z,20.37
2022-08-26T03:44:07.110Z,20.22
2022-08-26T03:45:07.061Z,20.24
2022-08-26T03:46:07.068Z,20.22
2022-08-26T03:47:06.968Z,20.18
2022-08-26T03:48:06.930Z,20.06
2022-08-26T03:49:06.881Z,20.03
2022-08-26T03:50:06.820Z,19.89
2022-08-26T03:51:06.770Z,19.94
2022-08-26T03:52:06.723Z,19.89
2022-08-26T03:53:07.476Z,19.88
2022-08-26T03:54:06.640Z,19.86
2022-08-26T03:55:06.579Z,19.86
2022-08-26T03:56:06.535Z,19.91
2022-08-26T03:57:06.481Z,19.88
2022-08-26T03:58:06.450Z,19.89
2022-08-26T03:59:07.547Z,19.86
2022-08-26T04:00:06.352Z,19.73
2022-08-26T04:01:06.289Z,19.74
2022-08-26T04:02:11.352Z,19.71
2022-08-26T04:03:06.387Z,19.76
2022-08-26T04:04:06.499Z,19.66
2022-08-26T04:05:06.095Z,19.63
2022-08-26T04:06:06.050Z,19.59
2022-08-26T04:07:05.998Z,19.63
2022-08-26T04:08:05.976Z,19.51
2022-08-26T04:09:05.905Z,19.56
2022-08-26T04:10:05.856Z,19.52
2022-08-26T04:11:05.806Z,19.45
2022-08-26T04:12:05.758Z,19.52
2022-08-26T04:13:05.744Z,19.49
2022-08-26T04:14:05.688Z,19.47
2022-08-26T04:15:05.614Z,19.44
2022-08-26T04:16:05.613Z,19.44
2022-08-26T04:17:05.520Z,19.44
2022-08-26T04:18:05.471Z,19.41
2022-08-26T04:19:05.436Z,19.49
2022-08-26T04:20:05.373Z,19.52
2022-08-26T04:21:05.326Z,19.49
2022-08-26T04:22:05.289Z,19.41
2022-08-26T04:23:05.232Z,19.55
2022-08-26T04:24:05.206Z,19.55
2022-08-26T04:25:06.862Z,19.55
2022-08-26T04:26:05.084Z,19.56
2022-08-26T04:27:05.036Z,19.58
2022-08-26T04:28:04.994Z,19.58
2022-08-26T04:29:04.947Z,19.62
2022-08-26T04:30:04.906Z,19.58
2022-08-26T04:31:04.897Z,19.71
2022-08-26T04:32:04.791Z,19.70
2022-08-26T04:33:12.994Z,19.69
2022-08-26T04:34:04.697Z,19.71
2022-08-26T04:35:04.701Z,19.66
2022-08-26T04:36:04.598Z,19.62
2022-08-26T04:37:04.552Z,19.62
2022-08-26T04:38:05.320Z,19.63
2022-08-26T04:39:04.452Z,19.63
2022-08-26T04:40:04.467Z,19.59
2022-08-26T04:41:05.438Z,19.63
2022-08-26T04:42:04.309Z,19.56
2022-08-26T04:43:04.340Z,19.64
2022-08-26T04:44:04.211Z,19.64
2022-08-26T04:45:05.761Z,19.56
2022-08-26T04:46:04.159Z,19.56
2022-08-26T04:47:04.067Z,19.51
2022-08-26T04:48:04.217Z,19.55
2022-08-26T04:49:03.967Z,19.56
2022-08-26T04:50:03.935Z,19.55
2022-08-26T04:51:03.874Z,19.62
2022-08-26T04:52:03.851Z,19.52
2022-08-26T04:53:03.775Z,19.59
2022-08-26T04:54:03.727Z,19.63
2022-08-26T04:55:03.689Z,19.56
2022-08-26T04:56:03.923Z,19.62
2022-08-26T04:57:03.581Z,19.62
2022-08-26T04:58:03.532Z,19.69
2022-08-26T04:59:03.514Z,19.66
2022-08-26T05:00:03.448Z,19.62
2022-08-26T05:01:03.386Z,19.59
2022-08-26T05:02:03.410Z,19.56
2022-08-26T05:03:03.289Z,19.62
2022-08-26T05:04:03.494Z,19.58
2022-08-26T05:05:03.205Z,19.59
2022-08-26T05:06:03.140Z,19.62
2022-08-26T05:07:03.186Z,19.58
2022-08-26T05:08:03.052Z,19.62
2022-08-26T05:09:02.997Z,19.59
2022-08-26T05:10:02.962Z,19.59
2022-08-26T05:11:02.899Z,19.59
2022-08-26T05:12:02.853Z,19.63
2022-08-26T05:13:02.811Z,19.55
2022-08-26T05:14:02.781Z,19.66
2022-08-26T05:15:02.706Z,19.62
2022-08-26T05:16:02.691Z,19.54
2022-08-26T05:17:02.609Z,19.48
2022-08-26T05:18:02.561Z,19.44
2022-08-26T05:19:02.588Z,19.49
2022-08-26T05:20:02.469Z,19.48
2022-08-26T05:21:02.430Z,19.48
2022-08-26T05:22:02.386Z,19.45
2022-08-26T05:23:02.368Z,19.41
2022-08-26T05:24:02.270Z,19.55
2022-08-26T05:25:02.247Z,19.48
2022-08-26T05:26:02.172Z,19.48
2022-08-26T05:27:02.139Z,19.52
2022-08-26T05:28:02.074Z,19.54
2022-08-26T05:29:02.037Z,19.62
2022-08-26T05:30:01.976Z,19.64
2022-08-26T05:31:02.027Z,19.59
2022-08-26T05:32:01.893Z,19.63
2022-08-26T05:33:01.837Z,19.62
2022-08-26T05:34:03.618Z,19.62
2022-08-26T05:35:01.746Z,19.52
2022-08-26T05:36:01.704Z,19.54
2022-08-26T05:37:01.647Z,19.47
2022-08-26T05:38:01.596Z,19.49
2022-08-26T05:39:01.556Z,19.45
2022-08-26T05:40:01.525Z,19.47
2022-08-26T05:41:01.459Z,19.41
2022-08-26T05:42:01.398Z,19.41
2022-08-26T05:43:01.449Z,19.36
2022-08-26T05:44:01.299Z,19.45
2022-08-26T05:45:01.256Z,19.39
2022-08-26T05:46:01.214Z,19.52
2022-08-26T05:47:01.154Z,19.51
2022-08-26T05:48:01.112Z,19.45
2022-08-26T05:49:01.057Z,19.51
2022-08-26T05:50:01.007Z,19.54
2022-08-26T05:51:00.972Z,19.63
2022-08-26T05:52:00.907Z,19.63
2022-08-26T05:53:00.861Z,19.71
2022-08-26T05:54:00.811Z,19.69
2022-08-26T05:55:00.764Z,19.76
2022-08-26T05:56:00.731Z,19.79
2022-08-26T05:57:00.671Z,19.86
2022-08-26T05:58:00.617Z,19.92
2022-08-26T05:59:00.569Z,19.89
2022-08-26T06:00:00.519Z,20.00
2022-08-26T06:01:00.491Z,20.06
2022-08-26T06:02:00.444Z,20.07
2022-08-26T06:03:00.577Z,20.19
2022-08-26T06:04:01.385Z,20.24
2022-08-26T06:05:00.276Z,20.26
2022-08-26T06:06:00.230Z,20.25
2022-08-26T06:07:00.182Z,20.31
2022-08-26T06:08:00.169Z,20.39
2022-08-26T06:09:00.085Z,20.40
2022-08-26T06:10:28.299Z,20.43
2022-08-26T06:10:59.989Z,20.40
2022-08-26T06:11:59.955Z,20.43
2022-08-26T06:13:03.238Z,20.52
2022-08-26T06:14:03.609Z,20.65
2022-08-26T06:14:59.814Z,20.63
2022-08-26T06:15:59.799Z,20.56
2022-08-26T06:16:59.701Z,20.58
2022-08-26T06:17:59.651Z,20.67
2022-08-26T06:18:59.600Z,20.59
2022-08-26T06:19:59.567Z,20.70
2022-08-26T06:20:59.524Z,20.67
2022-08-26T06:21:59.458Z,20.72
2022-08-26T06:22:59.482Z,20.69
2022-08-26T06:23:59.359Z,20.77
2022-08-26T06:24:59.331Z,20.82
2022-08-26T06:25:59.266Z,20.81
2022-08-26T06:26:59.219Z,20.88
2022-08-26T06:27:59.263Z,21.00
2022-08-26T06:28:59.125Z,20.97
2022-08-26T06:29:59.088Z,21.11
2022-08-26T06:30:59.063Z,21.18
2022-08-26T06:31:58.976Z,21.27
2022-08-26T06:32:59.004Z,21.29
2022-08-26T06:33:58.882Z,21.42
2022-08-26T06:34:58.846Z,21.32
2022-08-26T06:35:58.789Z,21.39
2022-08-26T06:36:58.770Z,21.45
2022-08-26T06:37:58.689Z,21.52
2022-08-26T06:38:58.642Z,21.64
2022-08-26T06:39:58.633Z,21.62
2022-08-26T06:40:59.744Z,21.66
2022-08-26T06:41:58.498Z,21.73
2022-08-26T06:42:58.451Z,21.82
2022-08-26T06:43:58.403Z,21.92
2022-08-26T06:44:58.499Z,21.93
2022-08-26T06:45:58.360Z,22.06
2022-08-26T06:46:58.259Z,22.11
2022-08-26T06:47:58.223Z,22.25
2022-08-26T06:48:58.170Z,22.26
2022-08-26T06:49:58.130Z,22.32
2022-08-26T06:50:58.068Z,22.43
2022-08-26T06:51:58.605Z,22.48
2022-08-26T06:52:57.974Z,22.48
2022-08-26T06:53:57.977Z,22.66
2022-08-26T06:54:57.879Z,22.65
2022-08-26T06:55:57.833Z,22.76
2022-08-26T06:56:57.787Z,22.73
2022-08-26T06:57:57.752Z,22.80
2022-08-26T06:58:57.700Z,22.91
2022-08-26T06:59:57.645Z,23.00
2022-08-26T07:01:01.986Z,23.03
2022-08-26T07:01:57.591Z,23.18
2022-08-26T07:03:07.345Z,23.13
2022-08-26T07:03:57.457Z,23.27
2022-08-26T07:04:57.411Z,23.28
2022-08-26T07:05:57.360Z,23.31
2022-08-26T07:06:57.467Z,23.36
2022-08-26T07:07:57.269Z,23.46
2022-08-26T07:08:57.235Z,23.50
2022-08-26T07:09:57.173Z,23.47
2022-08-26T07:10:57.130Z,23.66
2022-08-26T07:11:57.081Z,23.65
2022-08-26T07:12:57.035Z,23.80
2022-08-26T07:13:57.006Z,23.77
2022-08-26T07:14:56.940Z,23.87
2022-08-26T07:15:57.267Z,23.91
2022-08-26T07:16:56.847Z,24.02
2022-08-26T07:17:56.803Z,24.08
2022-08-26T07:18:56.758Z,24.06
2022-08-26T07:19:56.723Z,24.13
2022-08-26T07:20:56.663Z,24.17
2022-08-26T07:21:56.619Z,24.24
2022-08-26T07:22:56.571Z,24.29
2022-08-26T07:24:01.241Z,24.29
2022-08-26T07:24:56.483Z,24.36
2022-08-26T07:25:56.432Z,24.28
2022-08-26T07:26:56.402Z,24.45
2022-08-26T07:27:56.337Z,24.36
2022-08-26T07:28:56.300Z,24.38
2022-08-26T07:29:56.262Z,24.60
2022-08-26T07:30:56.278Z,24.53
2022-08-26T07:31:56.360Z,24.63
2022-08-26T07:32:56.109Z,24.61
2022-08-26T07:33:56.062Z,24.74
2022-08-26T07:34:56.017Z,24.73
2022-08-26T07:35:55.988Z,24.80
2022-08-26T07:36:55.926Z,24.85
2022-08-26T07:37:57.158Z,24.93
2022-08-26T07:38:55.849Z,24.89
2022-08-26T07:39:55.883Z,25.01
2022-08-26T07:40:55.742Z,24.92
2022-08-26T07:41:55.709Z,25.10
2022-08-26T07:42:55.654Z,25.16
2022-08-26T07:43:55.605Z,25.25
2022-08-26T07:44:55.560Z,25.26
2022-08-26T07:45:55.520Z,25.32
2022-08-26T07:46:55.483Z,25.40
2022-08-26T07:47:55.435Z,25.50
2022-08-26T07:48:55.380Z,25.51
2022-08-26T07:49:55.331Z,25.48
2022-08-26T07:50:55.321Z,25.62
2022-08-26T07:51:55.245Z,25.66
2022-08-26T07:52:55.214Z,25.72
2022-08-26T07:53:55.152Z,25.72
2022-08-26T07:54:55.112Z,25.73
2022-08-26T07:55:55.066Z,25.80
2022-08-26T07:56:55.938Z,25.88
2022-08-26T07:57:54.990Z,25.90
2022-08-26T07:58:54.931Z,26.07
2022-08-26T07:59:55.115Z,26.15
2022-08-26T08:00:54.846Z,26.05
2022-08-26T08:01:54.813Z,26.10
2022-08-26T08:02:54.772Z,26.15
2022-08-26T08:03:54.703Z,26.13
2022-08-26T08:04:54.776Z,26.29
2022-08-26T08:05:54.629Z,26.37
2022-08-26T08:06:54.572Z,26.52
2022-08-26T08:07:54.526Z,26.58
2022-08-26T08:08:54.485Z,26.74
2022-08-26T08:09:54.450Z,26.81
2022-08-26T08:10:54.392Z,26.89
2022-08-26T08:11:54.357Z,26.80
2022-08-26T08:12:54.304Z,26.75
2022-08-26T08:13:56.550Z,26.77
2022-08-26T08:14:54.228Z,26.81
2022-08-26T08:15:54.168Z,27.36
2022-08-26T08:16:54.858Z,27.60
2022-08-26T08:17:55.611Z,27.82
2022-08-26T08:18:54.043Z,27.67
2022-08-26T08:19:53.998Z,27.68
2022-08-26T08:21:04.616Z,27.68
2022-08-26T08:21:53.904Z,27.67
2022-08-26T08:22:53.925Z,27.58
2022-08-26T08:23:53.823Z,27.49
2022-08-26T08:24:53.771Z,27.42
2022-08-26T08:25:53.735Z,27.30
2022-08-26T08:26:53.682Z,27.26
2022-08-26T08:27:53.638Z,27.22
2022-08-26T08:28:53.613Z,27.18
2022-08-26T08:29:53.558Z,27.12
2022-08-26T08:30:53.592Z,27.07
2022-08-26T08:31:56.686Z,27.03
2022-08-26T08:32:53.418Z,26.97
2022-08-26T08:33:53.389Z,26.97
2022-08-26T08:34:53.331Z,26.89
2022-08-26T08:35:53.289Z,26.88
2022-08-26T08:36:53.768Z,26.73
2022-08-26T08:37:53.204Z,26.75
2022-08-26T08:38:53.172Z,26.66
2022-08-26T08:39:53.119Z,26.62
2022-08-26T08:40:53.610Z,26.70
2022-08-26T08:41:53.032Z,26.68
2022-08-26T08:43:52.937Z,26.59
2022-08-26T08:44:52.974Z,26.55
2022-08-26T08:45:52.881Z,26.58
2022-08-26T08:46:53.158Z,26.62
2022-08-26T08:47:54.760Z,26.62
2022-08-26T08:48:52.710Z,26.62
2022-08-26T08:49:52.667Z,26.60
2022-08-26T08:50:52.624Z,26.56
2022-08-26T08:51:52.583Z,26.62
2022-08-26T08:52:52.556Z,26.59
2022-08-26T08:53:54.795Z,26.59
2022-08-26T08:54:52.449Z,26.58
2022-08-26T08:55:52.418Z,26.53
2022-08-26T08:56:52.356Z,26.60
2022-08-26T08:57:53.791Z,26.53
2022-08-26T08:58:52.280Z,26.56
2022-08-26T08:59:52.238Z,26.56
2022-08-26T09:00:52.231Z,26.59
2022-08-26T09:01:52.284Z,26.55
2022-08-26T09:02:52.090Z,26.58
2022-08-26T09:03:52.050Z,26.62
2022-08-26T09:04:52.003Z,26.45
2022-08-26T09:05:51.973Z,26.45
2022-08-26T09:06:51.973Z,26.40
2022-08-26T09:07:51.870Z,26.43
2022-08-26T09:08:51.840Z,26.38
2022-08-26T09:09:51.782Z,26.37
2022-08-26T09:10:51.737Z,26.33
2022-08-26T09:11:51.690Z,26.15
2022-08-26T09:12:51.662Z,26.18
2022-08-26T09:13:51.602Z,25.93
2022-08-26T09:14:51.560Z,25.85
2022-08-26T09:15:51.517Z,25.78
2022-08-26T09:16:51.540Z,25.65
2022-08-26T09:17:51.438Z,25.63
2022-08-26T09:18:51.396Z,25.62
2022-08-26T09:19:51.334Z,25.65
2022-08-26T09:20:51.290Z,25.72
2022-08-26T09:21:53.475Z,25.73
2022-08-26T09:22:51.204Z,25.70
2022-08-26T09:23:51.171Z,25.72
2022-08-26T09:24:51.113Z,25.70
2022-08-26T09:25:51.122Z,25.73
2022-08-26T09:26:51.020Z,25.62
2022-08-26T09:27:51.068Z,25.51
2022-08-26T09:28:50.948Z,25.58
2022-08-26T09:29:50.902Z,25.41
2022-08-26T09:30:50.877Z,25.35
2022-08-26T09:31:50.802Z,25.33
2022-08-26T09:32:56.066Z,25.33
2022-08-26T09:33:50.709Z,25.28
2022-08-26T09:34:50.661Z,25.16
2022-08-26T09:35:50.617Z,25.13
2022-08-26T09:36:50.572Z,25.07
2022-08-26T09:38:50.493Z,24.99
2022-08-26T09:39:50.478Z,24.86
2022-08-26T09:40:50.406Z,24.63
2022-08-26T09:41:50.347Z,24.29
2022-08-26T09:42:50.303Z,24.14
2022-08-26T09:43:50.257Z,23.98
2022-08-26T09:44:50.240Z,23.92
2022-08-26T09:45:51.639Z,23.91
2022-08-26T09:46:50.123Z,23.91
2022-08-26T09:47:50.075Z,23.91
2022-08-26T09:48:51.629Z,23.81
2022-08-26T09:49:49.984Z,23.88
2022-08-26T09:50:49.939Z,23.78
2022-08-26T09:51:50.202Z,23.86
2022-08-26T09:52:49.863Z,23.87
2022-08-26T09:53:49.803Z,23.81
2022-08-26T09:54:49.758Z,23.37
2022-08-26T09:55:49.713Z,23.28
2022-08-26T09:56:49.672Z,23.02
2022-08-26T09:57:49.632Z,22.76
2022-08-26T09:58:49.573Z,22.54
2022-08-26T09:59:49.530Z,22.28
2022-08-26T10:00:49.527Z,22.15
2022-08-26T10:01:49.655Z,21.96
2022-08-26T10:02:49.464Z,21.92
2022-08-26T10:03:49.399Z,21.96
2022-08-26T10:04:49.299Z,21.83
2022-08-26T10:05:49.292Z,21.80
2022-08-26T10:06:49.204Z,21.73
2022-08-26T10:07:49.169Z,21.73
2022-08-26T10:08:49.112Z,21.62
2022-08-26T10:09:49.079Z,21.60
2022-08-26T10:10:49.017Z,21.61
2022-08-26T10:11:49.028Z,21.64
2022-08-26T10:12:48.924Z,21.55
2022-08-26T10:13:48.877Z,21.66
2022-08-26T10:14:48.950Z,21.75
2022-08-26T10:15:50.830Z,21.82
2022-08-26T10:16:48.816Z,21.91
2022-08-26T10:17:48.689Z,22.04
2022-08-26T10:18:48.639Z,22.07
2022-08-26T10:19:56.743Z,22.02
2022-08-26T10:20:48.563Z,21.98
2022-08-26T10:21:48.503Z,22.00
2022-08-26T10:22:48.453Z,22.02
2022-08-26T10:23:48.411Z,22.00
2022-08-26T10:24:50.817Z,22.04
2022-08-26T10:25:48.315Z,22.15
2022-08-26T10:26:48.276Z,22.22
2022-08-26T10:27:51.095Z,22.28
2022-08-26T10:28:48.190Z,22.17
2022-08-26T10:29:48.135Z,22.22
2022-08-26T10:30:48.081Z,22.26
2022-08-26T10:31:48.071Z,22.41
2022-08-26T10:32:47.990Z,22.33
2022-08-26T10:33:47.942Z,22.32
2022-08-26T10:34:47.903Z,22.17
2022-08-26T10:35:47.844Z,22.25
2022-08-26T10:37:10.802Z,22.02
2022-08-26T10:37:47.752Z,21.83
2022-08-26T10:38:47.704Z,21.73
2022-08-26T10:39:47.673Z,21.69
2022-08-26T10:40:49.128Z,21.35
2022-08-26T10:41:47.565Z,21.33
2022-08-26T10:42:47.522Z,21.32
2022-08-26T10:43:47.476Z,21.33
2022-08-26T10:44:47.423Z,21.22
2022-08-26T10:45:47.427Z,21.35
2022-08-26T10:46:47.347Z,21.43
2022-08-26T10:47:47.282Z,21.48
2022-08-26T10:48:47.237Z,21.54
2022-08-26T10:49:47.202Z,21.42
2022-08-26T10:50:47.407Z,21.51
2022-08-26T10:51:47.108Z,21.51
2022-08-26T10:52:47.055Z,21.58
2022-08-26T10:53:46.997Z,21.66
2022-08-26T10:54:46.951Z,21.69
2022-08-26T10:55:46.904Z,21.66
2022-08-26T10:56:46.869Z,21.70
2022-08-26T10:57:46.809Z,21.77
2022-08-26T10:58:46.761Z,21.67
2022-08-26T10:59:46.719Z,21.67
2022-08-26T11:00:46.724Z,21.67
2022-08-26T11:01:46.961Z,21.73
2022-08-26T11:02:47.070Z,21.72
2022-08-26T11:03:46.554Z,21.72
2022-08-26T11:04:48.355Z,21.73
2022-08-26T11:05:46.446Z,21.79
2022-08-26T11:06:46.390Z,21.93
2022-08-26T11:07:46.341Z,22.02
2022-08-26T11:08:46.292Z,22.22
2022-08-26T11:09:46.249Z,22.28
2022-08-26T11:10:46.197Z,22.47
2022-08-26T11:11:46.861Z,22.43
2022-08-26T11:12:49.215Z,22.66
2022-08-26T11:13:46.056Z,22.73
2022-08-26T11:14:58.449Z,22.78
2022-08-26T11:15:45.960Z,22.91
2022-08-26T11:16:45.977Z,23.08
2022-08-26T11:17:45.887Z,23.09
2022-08-26T11:18:45.819Z,23.08
2022-08-26T11:20:00.289Z,23.18
2022-08-26T11:20:45.875Z,23.15
2022-08-26T11:21:45.692Z,23.32
2022-08-26T11:22:47.908Z,23.44
2022-08-26T11:23:45.584Z,23.44
2022-08-26T11:24:45.548Z,23.61
2022-08-26T11:25:45.505Z,23.78
2022-08-26T11:26:56.239Z,24.01
2022-08-26T11:27:45.409Z,24.14
2022-08-26T11:28:45.351Z,24.33
2022-08-26T11:29:45.312Z,24.50
2022-08-26T11:30:45.273Z,24.63
2022-08-26T11:31:45.249Z,24.70
2022-08-26T11:32:45.168Z,24.85
2022-08-26T11:33:45.119Z,24.96
2022-08-26T11:34:45.077Z,25.10
2022-08-26T11:35:45.047Z,25.26
2022-08-26T11:36:45.002Z,25.33
2022-08-26T11:37:44.938Z,25.59
2022-08-26T11:38:44.889Z,25.68
2022-08-26T11:39:47.280Z,25.75
2022-08-26T11:40:44.854Z,25.75
2022-08-26T11:41:44.753Z,25.88
2022-08-26T11:42:44.724Z,25.84
2022-08-26T11:43:44.665Z,25.88
2022-08-26T11:44:49.035Z,25.91
2022-08-26T11:45:44.612Z,25.83
2022-08-26T11:46:44.523Z,25.81
2022-08-26T11:47:44.496Z,25.87
2022-08-26T11:48:44.436Z,25.91
2022-08-26T11:49:44.390Z,26.03
2022-08-26T11:50:44.345Z,26.18
2022-08-26T11:51:48.119Z,26.29
2022-08-26T11:52:44.268Z,26.34
2022-08-26T11:53:44.211Z,26.45
2022-08-26T11:54:44.179Z,26.44
2022-08-26T11:55:44.121Z,26.65
2022-08-26T11:56:44.075Z,26.65
2022-08-26T11:57:44.045Z,26.62
2022-08-26T11:58:43.983Z,26.63
2022-08-26T11:59:43.938Z,26.71
2022-08-26T12:00:45.821Z,26.89
2022-08-26T12:01:43.866Z,26.85
2022-08-26T12:02:43.803Z,26.92
2022-08-26T12:03:43.851Z,27.10
2022-08-26T12:04:43.754Z,27.15
2022-08-26T12:05:43.686Z,27.25
2022-08-26T12:06:45.731Z,27.35
2022-08-26T12:07:43.582Z,27.37
2022-08-26T12:08:43.539Z,27.42
2022-08-26T12:09:43.509Z,27.39
2022-08-26T12:10:43.449Z,27.33
2022-08-26T12:11:43.643Z,27.33
2022-08-26T12:12:43.364Z,27.30
2022-08-26T12:13:43.317Z,27.27
2022-08-26T12:14:43.294Z,27.42
2022-08-26T12:15:43.233Z,27.49
2022-08-26T12:16:43.222Z,27.39
2022-08-26T12:17:43.139Z,27.32
2022-08-26T12:18:44.863Z,27.37
2022-08-26T12:19:43.067Z,27.59
2022-08-26T12:20:43.006Z,27.74
2022-08-26T12:21:42.965Z,27.80
2022-08-26T12:22:43.447Z,27.95
2022-08-26T12:23:43.370Z,28.01
2022-08-26T12:24:42.845Z,28.22
2022-08-26T12:25:42.787Z,28.30
2022-08-26T12:26:42.744Z,28.38
2022-08-26T12:27:42.714Z,28.48
2022-08-26T12:28:42.658Z,28.44
2022-08-26T12:29:42.613Z,28.56
2022-08-26T12:30:42.584Z,28.54
2022-08-26T12:31:42.573Z,28.54
2022-08-26T12:32:57.421Z,28.57
2022-08-26T12:33:42.450Z,28.56
2022-08-26T12:34:42.403Z,28.52
2022-08-26T12:35:42.369Z,28.66
2022-08-26T12:36:42.308Z,28.64
2022-08-26T12:37:42.264Z,28.75
2022-08-26T12:38:42.220Z,28.62
2022-08-26T12:39:42.181Z,28.74
2022-08-26T12:40:42.148Z,28.60
2022-08-26T12:41:42.091Z,28.62
2022-08-26T12:42:42.051Z,28.52
2022-08-26T12:43:42.006Z,28.49
2022-08-26T12:44:41.978Z,28.38
2022-08-26T12:45:41.985Z,28.39
2022-08-26T12:46:43.211Z,28.42
2022-08-26T12:47:43.403Z,28.38
2022-08-26T12:48:41.789Z,28.42
2022-08-26T12:49:41.747Z,28.44
2022-08-26T12:50:41.718Z,28.37
2022-08-26T12:51:41.657Z,28.37
2022-08-26T12:52:41.625Z,28.48
2022-08-26T12:53:41.573Z,28.37